EGAAEGAE

Guest
Details From EGAA - Belfast Aldergrove
To EGAE - Londonderry Eglinton
Flight Number -
Tags Generated
Created
Modified
Stats Distance 40 nm / 73 km
Max Altitude 0 ft / 0 m
Waypoints 2
Social Downloads 1
Likes 0
Share VATSIM

Download

Looking for another format? Having issues loading an existing format? Contact us
Advertisement - Login to hide

Notes

Generated

Route

EGAA EGAE

ID Type Via Altitude Latitude Longitude Leg Dist Tot Dist Heading (true) Name
O EGAA APT - 0 ft / 0 m 54.65792˚ -6.22862˚ - 0 nm - -
O EGAE APT - 0 ft / 0 m 55.03672˚ -7.16540˚ 39 nm 39 nm 305° / 305° -

Altitude Profile

Advertisement - Login to hide

EGAA

Details ICAO EGAA (BFS)
Name Belfast Aldergrove
Region United Kingdom
Timezone Europe/London (UTC+0.0)
Stats Elevation 268 ft / 82 m (AMSL)
Location 54.653878° -6.220006°
Runways 2
Magnetic Variation 3.240° W

METAR

EGAA 140750Z 22016KT 9999 BKN006 02/02 Q0983 RERA

Decode

TAF

TAF TAF EGAA 140458Z 1406/1506 23012KT 9999 FEW007 SCT025 TEMPO 1406/1410 25017G27KT 2000 SHRASN BKN003 BKN009CB TEMPO 1410/1506 6000 SHRA BKN012 PROB30 TEMPO 1410/1506 BKN006 BECMG 1416/1419 30010KT TEMPO 1419/1506 32015G25KT

Decode

Departure Runways

ID Width Length Bearing (true) Bearing (mag) Surface Threshold Offset Overrun Length
07 148 ft / 45 m 9,095 ft / 2,772 m 65.01° 68.25° Asphalt 0 ft / 0 m 0 ft / 0 m
17 148 ft / 45 m 5,896 ft / 1,797 m 161.98° 165.22° Asphalt 525 ft / 160 m 0 ft / 0 m
25 148 ft / 45 m 9,095 ft / 2,772 m 245.05° 248.29° Asphalt 0 ft / 0 m 0 ft / 0 m
35 148 ft / 45 m 5,896 ft / 1,797 m 341.99° 345.23° Asphalt 502 ft / 153 m 0 ft / 0 m

EGAE

Details ICAO EGAE (LDY)
Name Londonderry Eglinton
Region United Kingdom
Timezone Europe/London (UTC+0.0)
Stats Elevation 22 ft / 7 m (AMSL)
Location 55.042812° -7.161188°
Runways 1
Magnetic Variation 3.710° W

METAR

EGAE 140820Z 21013KT 9999 FEW010 SCT015 BKN026 05/03 Q0980

Decode

TAF

Not found

Destination Runways

ID Width Length Bearing (true) Bearing (mag) Surface Threshold Offset Overrun Length
08 148 ft / 45 m 6,058 ft / 1,846 m 73.07° 76.78° Asphalt 407 ft / 124 m 0 ft / 0 m
26 148 ft / 45 m 6,058 ft / 1,846 m 253.09° 256.80° Asphalt 0 ft / 0 m 0 ft / 0 m

Approach Navaids

Runway Type Ident Frequency Range Bearing (true) Bearing (mag) Slope Elevation
26 Localiser IEGT 108.30 MHz 18 nm / 33 km 253.08° 256.79° - 22 ft / 7 m (AMSL)
26 Glidescope IEGT 108.30 MHz 10 nm / 19 km 253.08° 256.79° 3.00° 22 ft / 7 m (AMSL)
26 DME IEGT 108.30 MHz 18 nm / 33 km - - - 28 ft / 9 m (AMSL)